Time;durP1;ratioP1;P1;durP2;ratioP2;P2;SDS_P1;SDS_P2;PMS_P1;PMS_P2;Temp;Humidity;BMP_temperature;BMP_pressure;BME280_temperature;BME280_humidity;BME280_pressure;Samples;Min_cycle;Max_cycle;Signal;HPM_P1;HPM_P2
2023/03/17 00:01:35;;;;;;;7.05;2.88;;;;;;;;;;5052082;28;20382;-73
2023/03/17 00:04:01;;;;;;;10.75;2.58;;;;;;;;;;5051814;28;20021;-73
2023/03/17 00:06:31;;;;;;;6.53;2.72;;;;;;;;;;5052289;28;20025;-74
2023/03/17 00:08:57;;;;;;;6.15;2.75;;;;;;;;;;5051867;28;20414;-73
2023/03/17 00:11:24;;;;;;;9.95;2.45;;;;;;;;;;5051958;28;20032;-74
2023/03/17 00:13:50;;;;;;;9.38;2.92;;;;;;;;;;5051713;28;20029;-73
2023/03/17 00:16:17;;;;;;;8.80;2.60;;;;;;;;;;5053792;28;20505;-73
2023/03/17 00:18:44;;;;;;;7.65;3.05;;;;;;;;;;5055591;28;20028;-73
2023/03/17 00:21:12;;;;;;;9.43;3.08;;;;;;;;;;5055570;28;20017;-73
2023/03/17 00:23:38;;;;;;;26.35;6.30;;;;;;;;;;5055435;28;20502;-73
2023/03/17 00:26:04;;;;;;;16.50;3.03;;;;;;;;;;5055572;28;20032;-73
2023/03/17 00:28:30;;;;;;;7.28;2.95;;;;;;;;;;5055801;28;20483;-72
2023/03/17 00:31:01;;;;;;;11.75;3.10;;;;;;;;;;5055500;28;20025;-72
2023/03/17 00:33:33;;;;;;;9.43;3.15;;;;;;;;;;5055139;28;20021;-73
2023/03/17 00:36:00;;;;;;;7.05;2.63;;;;;;;;;;5055531;28;20044;-73
2023/03/17 00:38:26;;;;;;;11.02;2.95;;;;;;;;;;5055604;28;20028;-73
2023/03/17 00:40:53;;;;;;;7.47;2.40;;;;;;;;;;5055718;28;20025;-74
2023/03/17 00:43:19;;;;;;;11.48;2.90;;;;;;;;;;5057155;28;20032;-72
2023/03/17 00:45:45;;;;;;;8.23;2.60;;;;;;;;;;5064179;28;20033;-71
2023/03/17 00:48:19;;;;;;;8.43;2.75;;;;;;;;;;5069402;28;20025;-72
2023/03/17 00:50:46;;;;;;;8.48;2.80;;;;;;;;;;5066870;28;20021;-72
2023/03/17 00:53:13;;;;;;;13.60;2.85;;;;;;;;;;5071233;28;20047;-73
2023/03/17 00:55:41;;;;;;;6.93;2.38;;;;;;;;;;5055555;28;20044;-72
2023/03/17 00:58:15;;;;;;;6.00;2.60;;;;;;;;;;5055226;28;20032;-72
2023/03/17 01:00:41;;;;;;;5.50;2.78;;;;;;;;;;5052587;28;20033;-72
2023/03/17 01:03:10;;;;;;;6.53;2.50;;;;;;;;;;5050920;28;20505;-71
2023/03/17 01:05:37;;;;;;;8.80;2.97;;;;;;;;;;5054282;28;20029;-73
2023/03/17 01:08:03;;;;;;;9.35;2.83;;;;;;;;;;5054653;28;20013;-72
2023/03/17 01:10:29;;;;;;;6.90;2.70;;;;;;;;;;5054859;28;20219;-73
2023/03/17 01:12:56;;;;;;;10.38;2.85;;;;;;;;;;5054897;28;20326;-73
2023/03/17 01:15:23;;;;;;;9.25;2.95;;;;;;;;;;5054714;28;20025;-73
2023/03/17 01:17:50;;;;;;;4.40;2.40;;;;;;;;;;5054850;28;20071;-73
2023/03/17 01:20:17;;;;;;;5.25;2.60;;;;;;;;;;5054502;28;20051;-73
2023/03/17 01:22:44;;;;;;;6.93;2.90;;;;;;;;;;5054230;28;20071;-73
2023/03/17 01:25:10;;;;;;;7.35;2.72;;;;;;;;;;5054470;28;20513;-73
2023/03/17 01:27:37;;;;;;;6.50;3.15;;;;;;;;;;5053713;28;20107;-73
2023/03/17 01:30:04;;;;;;;6.40;2.85;;;;;;;;;;5054291;28;20036;-73
2023/03/17 01:32:30;;;;;;;15.80;2.75;;;;;;;;;;5054017;28;20029;-73
2023/03/17 01:34:57;;;;;;;9.15;3.08;;;;;;;;;;5054172;28;20112;-73
2023/03/17 01:37:24;;;;;;;14.25;3.05;;;;;;;;;;5054017;28;20521;-72
2023/03/17 01:39:51;;;;;;;9.63;2.92;;;;;;;;;;5054484;28;20444;-72
2023/03/17 01:42:17;;;;;;;10.90;3.10;;;;;;;;;;5054954;28;20019;-72
2023/03/17 01:45:16;;;;;;;7.63;2.80;;;;;;;;;;5054381;28;20039;-73
2023/03/17 01:47:41;;;;;;;10.43;2.97;;;;;;;;;;5052884;28;20060;-73
2023/03/17 01:50:09;;;;;;;9.93;3.13;;;;;;;;;;5054592;28;20451;-72
2023/03/17 01:52:38;;;;;;;9.18;2.80;;;;;;;;;;5054434;28;20025;-72
2023/03/17 01:55:09;;;;;;;11.75;3.10;;;;;;;;;;5054249;28;20029;-73
2023/03/17 01:57:40;;;;;;;10.80;3.63;;;;;;;;;;5053970;28;20427;-74
2023/03/17 02:00:08;;;;;;;10.13;3.75;;;;;;;;;;5053781;28;20120;-74
2023/03/17 02:02:36;;;;;;;9.23;2.83;;;;;;;;;;5053722;28;20028;-74
2023/03/17 02:05:03;;;;;;;7.80;3.13;;;;;;;;;;5053739;28;20478;-74
2023/03/17 02:07:30;;;;;;;11.70;3.58;;;;;;;;;;5053646;28;20489;-73
2023/03/17 02:09:57;;;;;;;10.25;3.63;;;;;;;;;;5053628;28;20405;-72
2023/03/17 02:12:23;;;;;;;11.13;3.58;;;;;;;;;;5053208;28;20394;-74
2023/03/17 02:14:50;;;;;;;6.60;2.83;;;;;;;;;;5054088;28;20129;-73
2023/03/17 02:17:17;;;;;;;8.10;3.38;;;;;;;;;;5053497;28;20414;-72
2023/03/17 02:19:43;;;;;;;10.95;3.47;;;;;;;;;;5053709;28;20474;-72
2023/03/17 02:22:09;;;;;;;5.72;3.20;;;;;;;;;;5052051;28;20025;-73
2023/03/17 02:24:48;;;;;;;14.40;3.45;;;;;;;;;;5053333;28;20451;-73
2023/03/17 02:27:20;;;;;;;6.65;3.17;;;;;;;;;;5053700;28;20040;-73
2023/03/17 02:29:46;;;;;;;11.05;3.60;;;;;;;;;;5053643;28;20029;-73
2023/03/17 02:32:13;;;;;;;6.95;3.25;;;;;;;;;;5054213;28;20025;-73
2023/03/17 02:34:39;;;;;;;11.32;3.38;;;;;;;;;;5054757;28;20378;-73
2023/03/17 02:37:06;;;;;;;6.63;3.15;;;;;;;;;;5055539;28;20032;-74
2023/03/17 02:39:32;;;;;;;10.80;3.65;;;;;;;;;;5052668;28;20017;-73
2023/03/17 02:41:59;;;;;;;8.18;3.08;;;;;;;;;;5053371;28;20017;-73
2023/03/17 02:44:25;;;;;;;9.35;4.10;;;;;;;;;;5053724;28;20061;-72
2023/03/17 02:46:52;;;;;;;6.38;3.45;;;;;;;;;;5053380;28;20543;-72
2023/03/17 02:49:18;;;;;;;8.80;3.72;;;;;;;;;;5052701;28;20074;-72
2023/03/17 02:51:45;;;;;;;11.32;3.70;;;;;;;;;;5052774;28;20044;-73
2023/03/17 02:54:11;;;;;;;8.30;3.60;;;;;;;;;;5052613;28;20047;-73
2023/03/17 02:56:37;;;;;;;10.00;3.53;;;;;;;;;;5052826;28;20025;-73
2023/03/17 02:59:03;;;;;;;9.70;3.80;;;;;;;;;;5052856;28;20025;-73
2023/03/17 03:01:29;;;;;;;9.88;3.88;;;;;;;;;;5052991;28;20494;-72
2023/03/17 03:03:56;;;;;;;13.43;4.57;;;;;;;;;;5052267;28;20025;-73
2023/03/17 03:06:25;;;;;;;10.48;3.55;;;;;;;;;;5052549;28;20490;-72
2023/03/17 03:08:51;;;;;;;8.80;3.63;;;;;;;;;;5052628;28;20032;-72
2023/03/17 03:11:18;;;;;;;11.02;3.95;;;;;;;;;;5052475;28;20025;-73
2023/03/17 03:13:44;;;;;;;9.50;3.88;;;;;;;;;;5052104;28;20047;-72
2023/03/17 03:16:10;;;;;;;10.52;3.72;;;;;;;;;;5050970;28;20051;-73
2023/03/17 03:18:36;;;;;;;12.43;4.07;;;;;;;;;;5051959;28;20040;-72
2023/03/17 03:21:03;;;;;;;10.45;3.90;;;;;;;;;;5052309;28;20032;-73
2023/03/17 03:23:29;;;;;;;8.55;4.10;;;;;;;;;;5052348;28;20032;-72
2023/03/17 03:25:56;;;;;;;9.75;4.07;;;;;;;;;;5052420;28;20033;-72
2023/03/17 03:28:22;;;;;;;6.82;3.97;;;;;;;;;;5052493;28;20489;-73
2023/03/17 03:30:48;;;;;;;7.22;3.60;;;;;;;;;;5052036;28;20112;-73
2023/03/17 03:33:14;;;;;;;7.57;3.50;;;;;;;;;;5051768;28;20039;-73
2023/03/17 03:35:41;;;;;;;7.63;3.97;;;;;;;;;;5052225;28;20021;-73
2023/03/17 03:38:08;;;;;;;16.55;3.72;;;;;;;;;;5048891;28;20120;-72
2023/03/17 03:40:35;;;;;;;13.20;4.93;;;;;;;;;;5051972;28;20040;-73
2023/03/17 03:43:01;;;;;;;13.15;4.32;;;;;;;;;;5051584;28;20494;-73
2023/03/17 03:45:27;;;;;;;8.13;3.90;;;;;;;;;;5051442;28;20028;-71
2023/03/17 03:47:53;;;;;;;10.57;4.47;;;;;;;;;;5051592;28;20086;-71
2023/03/17 03:50:19;;;;;;;11.18;5.07;;;;;;;;;;5051310;28;20151;-71
2023/03/17 03:52:45;;;;;;;10.25;4.55;;;;;;;;;;5051354;28;20051;-72
2023/03/17 03:55:11;;;;;;;8.93;3.88;;;;;;;;;;5051692;28;20033;-72
2023/03/17 03:57:37;;;;;;;12.10;4.97;;;;;;;;;;5051680;28;20029;-71
2023/03/17 04:00:04;;;;;;;9.68;4.40;;;;;;;;;;5051319;28;20048;-73
2023/03/17 04:02:31;;;;;;;14.57;4.80;;;;;;;;;;5051529;28;20032;-72
2023/03/17 04:04:57;;;;;;;9.13;4.47;;;;;;;;;;5051636;28;20100;-72
2023/03/17 04:07:23;;;;;;;13.32;4.60;;;;;;;;;;5051691;28;20393;-70
2023/03/17 04:09:49;;;;;;;9.55;4.50;;;;;;;;;;5051336;28;20031;-72
2023/03/17 04:12:16;;;;;;;10.65;4.13;;;;;;;;;;5049842;28;20026;-71
2023/03/17 04:14:43;;;;;;;11.05;4.25;;;;;;;;;;5051413;28;20549;-72
2023/03/17 04:17:09;;;;;;;13.40;4.35;;;;;;;;;;5051588;28;20104;-72
2023/03/17 04:19:35;;;;;;;8.75;4.30;;;;;;;;;;5051587;28;20100;-72
2023/03/17 04:22:01;;;;;;;14.18;4.20;;;;;;;;;;5051145;28;20106;-71
2023/03/17 04:24:27;;;;;;;9.07;4.30;;;;;;;;;;5051710;28;20036;-70
2023/03/17 04:26:53;;;;;;;15.07;4.43;;;;;;;;;;5051967;28;20029;-73
2023/03/17 04:29:20;;;;;;;8.20;4.18;;;;;;;;;;5051834;28;20380;-72
2023/03/17 04:31:46;;;;;;;9.93;4.70;;;;;;;;;;5051158;28;20025;-71
2023/03/17 04:34:16;;;;;;;10.52;4.65;;;;;;;;;;5052048;28;20021;-71
2023/03/17 04:36:43;;;;;;;9.80;4.43;;;;;;;;;;5053034;28;20033;-70
2023/03/17 04:39:09;;;;;;;10.18;4.47;;;;;;;;;;5053170;28;20040;-72
2023/03/17 04:41:35;;;;;;;9.20;4.47;;;;;;;;;;5051339;28;20025;-71
2023/03/17 04:44:01;;;;;;;9.82;4.55;;;;;;;;;;5051448;28;20546;-71
2023/03/17 04:46:27;;;;;;;8.48;4.75;;;;;;;;;;5051544;28;20053;-71
2023/03/17 04:48:53;;;;;;;16.65;4.70;;;;;;;;;;5051340;28;20029;-73
2023/03/17 04:51:19;;;;;;;13.15;5.00;;;;;;;;;;5052354;28;20120;-75
2023/03/17 04:53:45;;;;;;;10.65;4.90;;;;;;;;;;5051291;28;20036;-71
2023/03/17 04:56:11;;;;;;;8.13;4.78;;;;;;;;;;5051160;28;20037;-72
2023/03/17 04:58:37;;;;;;;11.15;4.75;;;;;;;;;;5051408;28;20033;-72
2023/03/17 05:01:04;;;;;;;11.63;4.90;;;;;;;;;;5051407;28;20228;-71
2023/03/17 05:03:30;;;;;;;8.98;4.78;;;;;;;;;;5053528;28;20025;-71
2023/03/17 05:06:00;;;;;;;13.15;5.07;;;;;;;;;;5055010;28;20408;-71
2023/03/17 05:08:27;;;;;;;11.38;5.10;;;;;;;;;;5054829;28;20025;-71
2023/03/17 05:10:53;;;;;;;12.60;5.10;;;;;;;;;;5054867;28;20025;-71
2023/03/17 05:13:19;;;;;;;11.57;5.30;;;;;;;;;;5054528;28;20399;-77
2023/03/17 05:15:50;;;;;;;13.10;5.75;;;;;;;;;;5053484;28;20020;-73
2023/03/17 05:18:16;;;;;;;15.27;5.60;;;;;;;;;;5054602;28;20017;-71
2023/03/17 05:20:42;;;;;;;13.35;5.55;;;;;;;;;;5054795;28;20128;-70
2023/03/17 05:23:08;;;;;;;16.70;5.53;;;;;;;;;;5055057;28;20029;-73
2023/03/17 05:25:35;;;;;;;10.38;5.22;;;;;;;;;;5054759;28;20049;-72
2023/03/17 05:28:01;;;;;;;11.10;5.30;;;;;;;;;;5055179;28;20021;-71
2023/03/17 05:30:27;;;;;;;12.57;5.50;;;;;;;;;;5054643;28;20035;-73
2023/03/17 05:32:53;;;;;;;12.27;5.78;;;;;;;;;;5054676;28;20052;-71
2023/03/17 05:35:19;;;;;;;15.75;5.43;;;;;;;;;;5054321;28;20033;-73
2023/03/17 05:37:46;;;;;;;12.88;5.72;;;;;;;;;;5054362;28;20037;-73
2023/03/17 05:40:13;;;;;;;14.80;5.30;;;;;;;;;;5054291;28;20037;-72
2023/03/17 05:42:40;;;;;;;11.15;5.57;;;;;;;;;;5054295;28;20017;-72
2023/03/17 05:45:06;;;;;;;11.77;5.45;;;;;;;;;;5054210;28;20028;-71
2023/03/17 05:47:33;;;;;;;15.52;5.32;;;;;;;;;;5054979;28;20474;-72
2023/03/17 05:49:59;;;;;;;9.23;5.13;;;;;;;;;;5054786;28;20032;-76
2023/03/17 05:52:25;;;;;;;12.32;5.75;;;;;;;;;;5050973;28;20033;-75
2023/03/17 05:54:52;;;;;;;10.73;5.30;;;;;;;;;;5054325;28;20110;-74
2023/03/17 05:57:18;;;;;;;13.85;6.07;;;;;;;;;;5054290;28;20017;-71
2023/03/17 05:59:44;;;;;;;12.10;5.77;;;;;;;;;;5053919;28;20501;-72
2023/03/17 06:02:10;;;;;;;12.80;5.35;;;;;;;;;;5053386;28;20540;-72
2023/03/17 06:04:37;;;;;;;15.95;5.57;;;;;;;;;;5053698;28;20032;-71
2023/03/17 06:07:05;;;;;;;11.38;5.80;;;;;;;;;;5053745;28;20203;-73
2023/03/17 06:09:31;;;;;;;11.25;5.63;;;;;;;;;;5054000;28;20414;-72
2023/03/17 06:11:57;;;;;;;20.23;5.88;;;;;;;;;;5053632;28;20491;-72
2023/03/17 06:14:23;;;;;;;11.18;6.43;;;;;;;;;;5053609;28;20101;-72
2023/03/17 06:16:49;;;;;;;11.70;5.40;;;;;;;;;;5053550;28;20021;-72
2023/03/17 06:19:15;;;;;;;15.27;5.85;;;;;;;;;;5053926;28;20064;-72
2023/03/17 06:21:41;;;;;;;11.52;5.70;;;;;;;;;;5053392;28;20505;-73
2023/03/17 06:24:08;;;;;;;12.00;5.88;;;;;;;;;;5053790;28;20063;-72
2023/03/17 06:26:34;;;;;;;15.57;6.28;;;;;;;;;;5054172;28;20083;-74
2023/03/17 06:29:00;;;;;;;17.80;6.25;;;;;;;;;;5051255;28;20483;-75
2023/03/17 06:31:26;;;;;;;18.13;6.03;;;;;;;;;;5054483;28;20029;-74
2023/03/17 06:33:52;;;;;;;19.63;7.00;;;;;;;;;;5054900;28;20074;-74
2023/03/17 06:36:18;;;;;;;13.75;6.15;;;;;;;;;;5052668;28;20386;-73
2023/03/17 06:38:45;;;;;;;20.20;5.97;;;;;;;;;;5056526;28;20047;-73
2023/03/17 06:41:11;;;;;;;18.88;6.13;;;;;;;;;;5055885;28;20032;-73
2023/03/17 06:43:37;;;;;;;13.98;6.20;;;;;;;;;;5054397;28;20514;-72
2023/03/17 06:46:03;;;;;;;13.63;5.97;;;;;;;;;;5053317;28;20032;-74
2023/03/17 06:48:29;;;;;;;11.85;5.95;;;;;;;;;;5051171;28;20021;-74
2023/03/17 06:50:55;;;;;;;15.85;6.35;;;;;;;;;;5053095;28;20028;-75
2023/03/17 06:53:21;;;;;;;15.05;5.95;;;;;;;;;;5053120;28;20028;-74
2023/03/17 06:55:47;;;;;;;18.90;6.38;;;;;;;;;;5052901;28;20381;-73
2023/03/17 06:58:14;;;;;;;12.05;5.57;;;;;;;;;;5052572;28;20029;-74
2023/03/17 07:00:40;;;;;;;16.15;6.40;;;;;;;;;;5053799;28;20474;-74
2023/03/17 07:03:08;;;;;;;14.77;5.90;;;;;;;;;;5053289;28;20017;-74
2023/03/17 07:05:35;;;;;;;20.15;7.05;;;;;;;;;;5056879;28;20112;-73
2023/03/17 07:08:01;;;;;;;17.95;6.18;;;;;;;;;;5050417;28;20017;-73
2023/03/17 07:10:27;;;;;;;10.77;6.00;;;;;;;;;;5055431;28;20064;-74
2023/03/17 07:12:53;;;;;;;11.98;6.10;;;;;;;;;;5052832;28;20029;-73
2023/03/17 07:15:19;;;;;;;12.77;5.95;;;;;;;;;;5052587;28;20029;-72
2023/03/17 07:17:48;;;;;;;17.38;6.32;;;;;;;;;;5052430;28;20036;-72
2023/03/17 07:20:14;;;;;;;15.88;5.90;;;;;;;;;;5052246;28;20429;-71
2023/03/17 07:22:41;;;;;;;16.10;6.18;;;;;;;;;;5052565;28;20036;-75
2023/03/17 07:25:08;;;;;;;15.07;5.93;;;;;;;;;;5051862;28;20415;-72
2023/03/17 07:27:34;;;;;;;14.77;6.68;;;;;;;;;;5052349;28;20059;-73
2023/03/17 07:30:03;;;;;;;15.55;6.57;;;;;;;;;;5052478;28;20025;-73
2023/03/17 07:32:29;;;;;;;12.55;6.13;;;;;;;;;;5052476;28;20431;-73
2023/03/17 07:34:55;;;;;;;14.95;6.60;;;;;;;;;;5052377;28;20108;-72
2023/03/17 07:37:22;;;;;;;14.70;6.07;;;;;;;;;;5052311;28;20109;-73
2023/03/17 07:39:48;;;;;;;14.75;5.78;;;;;;;;;;5052441;28;20055;-73
2023/03/17 07:42:15;;;;;;;14.00;6.03;;;;;;;;;;5051856;28;20052;-73
2023/03/17 07:44:41;;;;;;;14.52;5.78;;;;;;;;;;5052065;28;20104;-73
2023/03/17 07:47:08;;;;;;;14.25;5.43;;;;;;;;;;5052302;28;20106;-74
2023/03/17 07:49:34;;;;;;;13.45;6.07;;;;;;;;;;5051009;28;20027;-74
2023/03/17 07:52:00;;;;;;;18.38;6.60;;;;;;;;;;5052066;28;20029;-73
2023/03/17 07:54:27;;;;;;;14.60;5.47;;;;;;;;;;5051434;28;20070;-71
2023/03/17 07:56:54;;;;;;;12.48;5.65;;;;;;;;;;5051051;28;20029;-73
2023/03/17 07:59:20;;;;;;;11.27;5.80;;;;;;;;;;5051066;28;20029;-73
2023/03/17 08:01:46;;;;;;;17.17;6.05;;;;;;;;;;5050806;28;20124;-73
2023/03/17 08:04:13;;;;;;;19.23;6.47;;;;;;;;;;5051427;28;20021;-72
2023/03/17 08:06:42;;;;;;;16.92;6.55;;;;;;;;;;5050971;28;20484;-73
2023/03/17 08:09:09;;;;;;;14.07;5.65;;;;;;;;;;5051388;28;20025;-73
2023/03/17 08:11:36;;;;;;;13.45;5.75;;;;;;;;;;5052007;28;20422;-73
2023/03/17 08:14:02;;;;;;;16.77;6.65;;;;;;;;;;5051561;28;20032;-73
2023/03/17 08:16:29;;;;;;;15.63;5.97;;;;;;;;;;5051266;28;20466;-72
2023/03/17 08:18:57;;;;;;;13.93;5.60;;;;;;;;;;5051054;28;20039;-72
2023/03/17 08:21:23;;;;;;;13.27;5.72;;;;;;;;;;5051494;28;20029;-72
2023/03/17 08:23:49;;;;;;;14.68;6.32;;;;;;;;;;5054321;28;20017;-70
2023/03/17 08:26:17;;;;;;;12.30;5.80;;;;;;;;;;5060536;28;20562;-73
2023/03/17 08:28:43;;;;;;;15.45;6.25;;;;;;;;;;5069389;28;20017;-72
2023/03/17 08:31:14;;;;;;;13.70;6.05;;;;;;;;;;5063402;28;20029;-74
2023/03/17 08:33:41;;;;;;;12.68;5.90;;;;;;;;;;5048309;28;20018;-73
2023/03/17 08:36:08;;;;;;;20.17;5.85;;;;;;;;;;5050529;28;20032;-72
2023/03/17 08:38:35;;;;;;;10.13;5.28;;;;;;;;;;5067370;28;20037;-72
2023/03/17 08:41:02;;;;;;;19.02;5.68;;;;;;;;;;5074355;28;20086;-77
2023/03/17 08:43:28;;;;;;;13.70;5.65;;;;;;;;;;5073612;28;20028;-72
2023/03/17 08:46:00;;;;;;;13.77;5.63;;;;;;;;;;5074319;28;20074;-72
2023/03/17 08:48:26;;;;;;;10.73;5.07;;;;;;;;;;5074296;28;20043;-73
2023/03/17 08:50:52;;;;;;;11.50;5.18;;;;;;;;;;5074405;28;20036;-73
2023/03/17 08:53:19;;;;;;;12.82;5.22;;;;;;;;;;5074471;28;20025;-72
2023/03/17 08:55:45;;;;;;;10.65;5.43;;;;;;;;;;5074997;28;20047;-72
2023/03/17 08:58:12;;;;;;;11.65;4.53;;;;;;;;;;5074860;28;20028;-73
2023/03/17 09:00:39;;;;;;;11.18;4.95;;;;;;;;;;5075086;28;20031;-71
2023/03/17 09:03:05;;;;;;;8.00;4.70;;;;;;;;;;5074394;28;20021;-72
2023/03/17 09:05:32;;;;;;;9.48;4.78;;;;;;;;;;5075111;28;20092;-71
2023/03/17 09:07:58;;;;;;;11.60;4.88;;;;;;;;;;5074836;28;20040;-71
2023/03/17 09:10:25;;;;;;;13.93;5.55;;;;;;;;;;5075039;28;20375;-72
2023/03/17 09:12:52;;;;;;;15.13;5.65;;;;;;;;;;5074442;28;20060;-73
2023/03/17 09:15:18;;;;;;;14.95;5.25;;;;;;;;;;5074640;28;20032;-72
2023/03/17 09:17:44;;;;;;;11.75;5.10;;;;;;;;;;5074334;28;20398;-72
2023/03/17 09:20:11;;;;;;;7.72;4.10;;;;;;;;;;5074662;28;20058;-73
2023/03/17 09:22:37;;;;;;;9.88;4.68;;;;;;;;;;5074548;28;20024;-78
2023/03/17 09:25:03;;;;;;;8.77;4.85;;;;;;;;;;5074418;28;20594;-72
2023/03/17 09:27:29;;;;;;;11.43;5.05;;;;;;;;;;5074410;28;20029;-73
2023/03/17 09:29:55;;;;;;;14.50;5.38;;;;;;;;;;5074860;28;20027;-72
2023/03/17 09:32:21;;;;;;;9.90;4.50;;;;;;;;;;5074342;28;20407;-72
2023/03/17 09:34:47;;;;;;;11.98;4.45;;;;;;;;;;5074636;28;20031;-73
2023/03/17 09:37:13;;;;;;;12.70;4.15;;;;;;;;;;5074458;28;20040;-72
2023/03/17 09:39:40;;;;;;;14.25;4.57;;;;;;;;;;5074422;28;20033;-74
2023/03/17 09:42:06;;;;;;;10.60;4.30;;;;;;;;;;5074025;28;20381;-73
2023/03/17 09:44:47;;;;;;;11.80;4.63;;;;;;;;;;5074186;28;20029;-73
2023/03/17 09:47:35;;;;;;;8.95;4.07;;;;;;;;;;5074308;28;20099;-74
2023/03/17 09:50:03;;;;;;;10.02;4.90;;;;;;;;;;5073859;28;20033;-74
2023/03/17 09:52:31;;;;;;;8.18;4.60;;;;;;;;;;5073601;28;20100;-74
2023/03/17 09:54:58;;;;;;;11.43;4.82;;;;;;;;;;5074129;28;20469;-75
2023/03/17 09:57:30;;;;;;;17.20;5.00;;;;;;;;;;5073941;28;20028;-76
2023/03/17 10:00:06;;;;;;;9.65;3.75;;;;;;;;;;5074114;28;20020;-74
2023/03/17 10:02:39;;;;;;;14.55;5.00;;;;;;;;;;5073740;28;20021;-75
2023/03/17 10:05:20;;;;;;;10.93;4.60;;;;;;;;;;5074335;28;20024;-73
2023/03/17 10:08:01;;;;;;;10.13;4.75;;;;;;;;;;5073774;28;20099;-73
2023/03/17 10:10:27;;;;;;;16.25;5.00;;;;;;;;;;5073962;28;20067;-74
2023/03/17 10:12:53;;;;;;;14.90;4.53;;;;;;;;;;5074052;28;20032;-72
2023/03/17 10:15:42;;;;;;;9.85;4.60;;;;;;;;;;5073697;28;20077;-72
2023/03/17 10:18:09;;;;;;;9.90;4.88;;;;;;;;;;5073875;28;20047;-73
2023/03/17 10:20:36;;;;;;;10.68;4.90;;;;;;;;;;5073780;28;20028;-73
2023/03/17 10:23:04;;;;;;;9.85;4.63;;;;;;;;;;5073006;28;20111;-72
2023/03/17 10:25:32;;;;;;;16.58;5.00;;;;;;;;;;5073520;28;20025;-72
2023/03/17 10:28:00;;;;;;;9.93;4.82;;;;;;;;;;5074053;28;20017;-75
2023/03/17 10:30:26;;;;;;;13.35;4.80;;;;;;;;;;5073733;28;20025;-74
2023/03/17 10:32:56;;;;;;;9.60;4.70;;;;;;;;;;5074170;28;20032;-77
2023/03/17 10:35:23;;;;;;;10.02;4.40;;;;;;;;;;5073526;28;20020;-73
2023/03/17 10:37:49;;;;;;;15.23;4.95;;;;;;;;;;5073317;28;20039;-75
2023/03/17 10:40:35;;;;;;;14.00;4.57;;;;;;;;;;5075392;28;20110;-76
2023/03/17 10:43:06;;;;;;;11.13;4.45;;;;;;;;;;5074776;28;20054;-76
2023/03/17 10:45:33;;;;;;;12.77;4.80;;;;;;;;;;5074525;28;20033;-75
2023/03/17 10:48:01;;;;;;;12.95;4.60;;;;;;;;;;5073786;28;20031;-76
2023/03/17 10:50:32;;;;;;;9.80;4.60;;;;;;;;;;5073665;28;20025;-73
2023/03/17 10:52:59;;;;;;;9.95;4.28;;;;;;;;;;5072607;28;20021;-72
2023/03/17 10:55:31;;;;;;;13.18;5.15;;;;;;;;;;5074059;28;20328;-72
2023/03/17 10:58:07;;;;;;;9.38;4.47;;;;;;;;;;5074284;28;20058;-72
2023/03/17 11:00:35;;;;;;;12.10;4.60;;;;;;;;;;5073035;28;20025;-73
2023/03/17 11:03:03;;;;;;;17.25;9.18;;;;;;;;;;5073122;28;20024;-73
2023/03/17 11:05:30;;;;;;;7.45;3.78;;;;;;;;;;5072248;28;20031;-72
2023/03/17 11:08:10;;;;;;;15.20;4.47;;;;;;;;;;5073009;28;20039;-73
2023/03/17 11:10:37;;;;;;;10.52;5.30;;;;;;;;;;5072221;28;20036;-72
2023/03/17 11:13:03;;;;;;;10.55;4.13;;;;;;;;;;5072614;28;20025;-74
2023/03/17 11:15:41;;;;;;;8.23;3.42;;;;;;;;;;5072292;28;20031;-72
2023/03/17 11:18:13;;;;;;;7.40;3.35;;;;;;;;;;5072661;28;20197;-72
2023/03/17 11:20:51;;;;;;;5.78;3.58;;;;;;;;;;5072673;28;20037;-72
2023/03/17 11:23:26;;;;;;;7.75;3.30;;;;;;;;;;5047310;28;20040;-72
2023/03/17 11:25:58;;;;;;;5.60;3.15;;;;;;;;;;5042732;28;20017;-72
2023/03/17 11:28:27;;;;;;;6.13;3.72;;;;;;;;;;5050689;28;20025;-72
2023/03/17 11:31:14;;;;;;;8.70;3.65;;;;;;;;;;5048629;28;20419;-72
2023/03/17 11:33:55;;;;;;;5.60;3.22;;;;;;;;;;5049184;28;20017;-72
2023/03/17 11:36:40;;;;;;;39.67;23.58;;;;;;;;;;5050660;28;20025;-72
2023/03/17 11:39:07;;;;;;;;;;;;;;;;;;5047383;28;20017;-73
2023/03/17 11:41:40;;;;;;;11.57;3.60;;;;;;;;;;5048168;28;19916;-74
2023/03/17 11:44:06;;;;;;;9.15;3.03;;;;;;;;;;5043887;28;20490;-72
2023/03/17 11:46:32;;;;;;;6.90;3.33;;;;;;;;;;5045798;28;20016;-71
2023/03/17 11:49:03;;;;;;;7.05;3.75;;;;;;;;;;5047508;28;20032;-72
2023/03/17 11:51:40;;;;;;;10.13;3.33;;;;;;;;;;5045736;28;20029;-72
2023/03/17 11:54:14;;;;;;;7.85;3.60;;;;;;;;;;5049824;28;20021;-72
2023/03/17 11:56:40;;;;;;;;;;;;;;;;;;5044822;28;20040;-71
2023/03/17 11:59:14;;;;;;;11.35;3.42;;;;;;;;;;5044013;28;20271;-72
2023/03/17 12:01:46;;;;;;;5.90;2.90;;;;;;;;;;5044997;28;20025;-73
2023/03/17 12:04:19;;;;;;;5.60;3.22;;;;;;;;;;5041357;28;20093;-71
2023/03/17 12:06:47;;;;;;;5.15;3.03;;;;;;;;;;5050209;28;20540;-73
2023/03/17 12:09:19;;;;;;;6.85;3.00;;;;;;;;;;5044915;28;20014;-73
2023/03/17 12:11:46;;;;;;;7.93;3.25;;;;;;;;;;5038666;28;20056;-73
2023/03/17 12:14:17;;;;;;;7.95;3.17;;;19.10;99.90;;;;;;5056680;28;20100;-72
2023/03/17 12:16:48;;;;;;;12.32;3.17;;;30.00;99.90;;;;;;5056297;28;20040;-71
2023/03/17 12:19:15;;;;;;;5.05;2.60;;;;;;;;;;5059275;28;20028;-70
2023/03/17 12:22:03;;;;;;;5.03;2.80;;;;;;;;;;5056507;28;20052;-72
2023/03/17 12:24:38;;;;;;;6.28;2.97;;;;;;;;;;5054757;28;20024;-72
2023/03/17 12:27:04;;;;;;;11.15;2.78;;;;;;;;;;5047644;28;20025;-72
2023/03/17 12:29:48;;;;;;;9.65;3.00;;;;;;;;;;5048355;28;20017;-72
2023/03/17 12:32:18;;;;;;;8.35;3.10;;;;;;;;;;5050582;28;20028;-71
2023/03/17 12:34:44;;;;;;;10.90;2.78;;;;;;;;;;5042764;28;20029;-71
2023/03/17 12:37:11;;;;;;;7.57;3.20;;;;;;;;;;5050843;28;20101;-72
2023/03/17 12:39:39;;;;;;;8.45;3.80;;;;;;;;;;5054138;28;20052;-73
2023/03/17 12:42:05;;;;;;;6.88;2.88;;;;;;;;;;5050672;28;20082;-71
2023/03/17 12:44:38;;;;;;;15.00;3.70;;;;;;;;;;5049088;28;20025;-70
2023/03/17 12:47:06;;;;;;;6.03;3.30;;;;;;;;;;5047253;28;20352;-74
2023/03/17 12:49:32;;;;;;;9.13;2.90;;;;;;;;;;5047378;28;20021;-73
2023/03/17 12:52:17;;;;;;;11.48;3.97;;;;;;;;;;5045609;28;20263;-75
2023/03/17 12:54:46;;;;;;;7.82;3.47;;;;;;;;;;5048750;28;20067;-72
2023/03/17 12:57:12;;;;;;;9.00;2.95;;;;;;;;;;5066002;28;20035;-73
2023/03/17 12:59:41;;;;;;;7.10;3.58;;;;;;;;;;5073841;28;20032;-73
2023/03/17 13:02:15;;;;;;;9.15;3.08;;;;;;;;;;5073097;28;20338;-74
2023/03/17 13:04:49;;;;;;;6.97;3.10;;;;;;;;;;5073732;28;20020;-72
2023/03/17 13:07:22;;;;;;;6.75;3.35;;;;;;;;;;5073612;28;20020;-73
2023/03/17 13:10:10;;;;;;;4.88;2.97;;;;;;;;;;5073961;28;20017;-74
2023/03/17 13:12:39;;;;;;;8.18;2.80;;;;;;;;;;5073345;28;20033;-74
2023/03/17 13:15:24;;;;;;;8.82;3.08;;;;;;;;;;5073513;28;20024;-73
2023/03/17 13:17:50;;;;;;;13.88;3.30;;;;;;;;;;5073861;28;20032;-73
2023/03/17 13:20:18;;;;;;;5.45;3.38;;;;;;;;;;5074256;28;20123;-72
2023/03/17 13:22:59;;;;;;;7.05;3.70;;;;;;;;;;5073259;28;20032;-72
2023/03/17 13:25:29;;;;;;;14.32;3.65;;;;;;;;;;5074342;28;20053;-72
2023/03/17 13:28:15;;;;;;;5.65;3.13;;;;;;;;;;5073793;28;20420;-72
2023/03/17 13:31:04;;;;;;;11.18;3.20;;;;;;;;;;5073025;28;20017;-73
2023/03/17 13:33:30;;;;;;;10.48;3.35;;;;;;;;;;5073807;28;20120;-72
2023/03/17 13:36:16;;;;;;;7.75;3.38;;;;;;;;;;5073901;28;20099;-72
2023/03/17 13:39:02;;;;;;;7.93;3.10;;;;;;;;;;5074156;28;20028;-73
2023/03/17 13:41:42;;;;;;;9.57;3.42;;;;;;;;;;5073629;28;20024;-72
2023/03/17 13:44:08;;;;;;;7.45;3.22;;;;;;;;;;5072415;28;20494;-72
2023/03/17 13:46:40;;;;;;;6.32;2.78;;;;;;;;;;5064309;28;20043;-72
2023/03/17 13:49:18;;;;;;;7.40;3.22;;;;;;;;;;5049920;28;20029;-74
2023/03/17 13:52:05;;;;;;;9.35;3.53;;;;;;;;;;5052209;28;20474;-75
2023/03/17 13:54:33;;;;;;;6.25;2.80;;;;;;;;;;5045733;28;20041;-72
2023/03/17 13:57:19;;;;;;;4.78;2.58;;;;;;;;;;5053956;28;20567;-72
2023/03/17 13:59:57;;;;;;;4.70;2.90;;;;;;;;;;5048335;28;20403;-71
2023/03/17 14:02:25;;;;;;;5.82;2.90;;;;;;;;;;5050832;28;20029;-72
2023/03/17 14:04:54;;;;;;;6.13;2.22;;;;;;;;;;5052208;28;20043;-73
2023/03/17 14:07:22;;;;;;;6.53;2.20;;;;;;;;;;5047326;28;20029;-73
2023/03/17 14:09:52;;;;;;;4.32;2.47;;;;;;;;;;5054258;28;20127;-72
2023/03/17 14:12:31;;;;;;;5.32;2.30;;;;;;;;;;5057586;28;20021;-72
2023/03/17 14:15:03;;;;;;;7.20;2.50;;;;;;;;;;5051354;28;20155;-73
2023/03/17 14:17:32;;;;;;;4.13;2.42;;;;;;;;;;5055507;28;20035;-73
2023/03/17 14:20:00;;;;;;;11.55;2.67;;;;;;;;;;5049806;28;20033;-73
2023/03/17 14:22:27;;;;;;;14.07;3.00;;;;;;;;;;5048925;28;20108;-73
2023/03/17 14:24:54;;;;;;;6.13;2.38;;;;;;;;;;5053313;28;20020;-72
2023/03/17 14:27:21;;;;;;;30.35;19.25;;;;;;;;;;5052625;28;20090;-71
2023/03/17 14:29:47;;;;;;;11.63;6.82;;;;;;;;;;5052655;28;20491;-72
2023/03/17 14:32:15;;;;;;;4.28;2.80;;;;;;;;;;5051135;28;20078;-72
2023/03/17 14:34:46;;;;;;;4.00;2.30;;;;;;;;;;5053160;28;20079;-73
2023/03/17 14:37:13;;;;;;;8.88;3.38;;;;;;;;;;5051798;28;20044;-72
2023/03/17 14:39:51;;;;;;;4.78;2.45;;;;;;;;;;5052709;28;20033;-71
2023/03/17 14:42:18;;;;;;;9.70;2.50;;;;;;;;;;5052218;28;20021;-74
2023/03/17 14:44:44;;;;;;;7.50;2.42;;;;;;;;;;5052254;28;20406;-71